Time;durP1;ratioP1;P1;durP2;ratioP2;P2;SDS_P1;SDS_P2;PMS_P1;PMS_P2;Temp;Humidity;BMP_temperature;BMP_pressure;BME280_temperature;BME280_humidity;BME280_pressure;Samples;Min_cycle;Max_cycle;Signal;HPM_P1;HPM_P2
2023/01/13 00:01:20;;;;;;;34.65;4.95;;;9.00;99.90;;;;;;4971333;28;20060;-72
2023/01/13 00:03:46;;;;;;;24.30;5.15;;;8.90;99.90;;;;;;4944023;28;20058;-72
2023/01/13 00:06:17;;;;;;;29.45;3.95;;;8.90;99.90;;;;;;4957735;28;20035;-72
2023/01/13 00:08:43;;;;;;;28.27;5.13;;;8.80;99.90;;;;;;4956830;28;20051;-71
2023/01/13 00:11:10;;;;;;;32.63;4.20;;;8.80;99.90;;;;;;4961492;28;20531;-71
2023/01/13 00:13:37;;;;;;;25.75;3.92;;;8.70;99.90;;;;;;4958072;28;20440;-71
2023/01/13 00:16:09;;;;;;;30.15;4.50;;;8.70;99.90;;;;;;4958853;28;20046;-71
2023/01/13 00:18:35;;;;;;;34.47;4.78;;;8.70;99.90;;;;;;4960528;28;20050;-71
2023/01/13 00:21:23;;;;;;;36.15;6.20;;;8.60;99.90;;;;;;4958806;28;20034;-71
2023/01/13 00:23:53;;;;;;;37.97;5.35;;;8.60;99.90;;;;;;4958833;28;20038;-71
2023/01/13 00:26:22;;;;;;;33.55;4.68;;;8.50;99.90;;;;;;4958961;28;20047;-71
2023/01/13 00:28:48;;;;;;;33.80;5.25;;;8.50;99.90;;;;;;4957101;28;20069;-72
2023/01/13 00:31:17;;;;;;;34.55;5.45;;;8.90;99.90;;;;;;4955475;28;21651;-71
2023/01/13 00:33:43;;;;;;;35.95;5.60;;;8.40;99.90;;;;;;4943741;28;20133;-72
2023/01/13 00:36:12;;;;;;;37.67;6.70;;;8.40;99.90;;;;;;4959386;28;20914;-72
2023/01/13 00:38:39;;;;;;;38.63;5.45;;;8.40;99.90;;;;;;4958925;28;20053;-72
2023/01/13 00:41:07;;;;;;;25.23;4.47;;;8.30;99.90;;;;;;4944648;28;20171;-72
2023/01/13 00:43:35;;;;;;;36.75;5.55;;;8.30;99.90;;;;;;4958857;28;20480;-72
2023/01/13 00:46:01;;;;;;;36.75;5.78;;;8.30;99.90;;;;;;4941619;28;20504;-72
2023/01/13 00:48:28;;;;;;;35.90;6.20;;;8.30;99.90;;;;;;4963558;28;20035;-71
2023/01/13 00:50:56;;;;;;;40.35;6.32;;;8.20;99.90;;;;;;4942297;28;20840;-72
2023/01/13 00:53:22;;;;;;;39.97;5.68;;;8.20;99.90;;;;;;4959728;28;20035;-71
2023/01/13 00:55:47;;;;;;;39.67;6.38;;;8.10;99.90;;;;;;4961147;28;20050;-71
2023/01/13 00:58:14;;;;;;;42.65;6.13;;;8.10;99.90;;;;;;4960856;28;20237;-72
2023/01/13 01:00:40;;;;;;;43.65;5.68;;;8.20;99.90;;;;;;4955674;28;20063;-71
2023/01/13 01:03:11;;;;;;;35.15;5.57;;;8.10;99.90;;;;;;4926085;28;20220;-71
2023/01/13 01:05:38;;;;;;;34.20;5.72;;;8.10;99.90;;;;;;4922461;28;20063;-71
2023/01/13 01:08:04;;;;;;;33.80;5.15;;;8.10;99.90;;;;;;4925783;28;20051;-71
2023/01/13 01:10:30;;;;;;;35.33;5.82;;;8.00;99.90;;;;;;4899025;28;20611;-71
2023/01/13 01:12:56;;;;;;;36.33;6.22;;;8.00;99.90;;;;;;4930103;28;20047;-71
2023/01/13 01:15:21;;;;;;;40.33;5.50;;;8.00;99.90;;;;;;4922310;28;20142;-72
2023/01/13 01:17:47;;;;;;;35.40;5.65;;;8.00;99.90;;;;;;4940919;28;20040;-71
2023/01/13 01:20:13;;;;;;;41.70;5.57;;;8.00;99.90;;;;;;4923113;28;20045;-71
2023/01/13 01:22:38;;;;;;;43.15;5.75;;;8.00;99.90;;;;;;4927088;29;20062;-71
2023/01/13 01:25:05;;;;;;;34.33;5.30;;;8.20;99.90;;;;;;4922963;29;20035;-71
2023/01/13 01:27:31;;;;;;;40.70;5.75;;;7.90;99.90;;;;;;4921190;29;20078;-72
2023/01/13 01:29:56;;;;;;;35.85;6.30;;;7.90;99.90;;;;;;4909828;29;20047;-72
2023/01/13 01:32:22;;;;;;;38.05;5.75;;;7.90;99.90;;;;;;4937758;29;20056;-72
2023/01/13 01:34:50;;;;;;;33.78;5.88;;;7.90;99.90;;;;;;4907592;29;20047;-72
2023/01/13 01:37:15;;;;;;;26.13;5.03;;;7.90;99.90;;;;;;4925931;29;20051;-72
2023/01/13 01:39:41;;;;;;;36.53;5.22;;;7.90;99.90;;;;;;4938383;29;20603;-72
2023/01/13 01:45:10;;;;;;;37.40;6.43;;;7.90;99.90;;;;;;4926102;29;20070;-72
2023/01/13 01:47:36;;;;;;;34.53;5.57;;;7.90;99.90;;;;;;4922746;29;20125;-72
2023/01/13 01:50:03;;;;;;;38.05;5.65;;;7.80;99.90;;;;;;4919423;29;20467;-72
2023/01/13 01:52:34;;;;;;;40.90;6.40;;;7.80;99.90;;;;;;4923788;29;20141;-72
2023/01/13 01:55:00;;;;;;;41.33;5.93;;;7.80;99.90;;;;;;4940890;29;20047;-72
2023/01/13 01:57:41;;;;;;;36.38;5.72;;;7.80;99.90;;;;;;4924120;29;20047;-72
2023/01/13 02:00:08;;;;;;;41.17;7.15;;;7.80;99.90;;;;;;4917878;29;20050;-72
2023/01/13 02:02:35;;;;;;;43.35;5.35;;;7.80;99.90;;;;;;4939644;28;20063;-72
2023/01/13 02:05:01;;;;;;;41.33;5.50;;;7.80;99.90;;;;;;4936219;28;20059;-72
2023/01/13 02:07:30;;;;;;;36.30;5.53;;;7.80;99.90;;;;;;4920312;29;20106;-72
2023/01/13 02:10:00;;;;;;;40.45;5.88;;;7.80;99.90;;;;;;4925813;29;20043;-72
2023/01/13 02:12:30;;;;;;;43.72;6.25;;;7.80;99.90;;;;;;4925313;29;20078;-72
2023/01/13 02:15:17;;;;;;;40.75;6.22;;;7.80;99.90;;;;;;4941085;28;20047;-72
2023/01/13 02:18:01;;;;;;;49.85;8.00;;;7.80;99.90;;;;;;4936529;28;20179;-72
2023/01/13 02:20:53;;;;;;;34.00;6.20;;;7.80;99.90;;;;;;4935757;28;20050;-73
2023/01/13 02:26:40;;;;;;;33.63;5.47;;;7.80;99.90;;;;;;4934168;28;20047;-72
2023/01/13 02:32:19;;;;;;;32.60;4.28;;;7.90;99.90;;;;;;4921458;29;20098;-72
2023/01/13 02:34:58;;;;;;;34.42;5.03;;;7.90;99.90;;;;;;4922426;29;20040;-72
2023/01/13 02:37:30;;;;;;;34.88;6.32;;;7.80;99.90;;;;;;4932815;28;20086;-71
2023/01/13 02:40:07;;;;;;;44.20;6.10;;;8.00;99.90;;;;;;4938555;28;20051;-72
2023/01/13 02:45:27;;;;;;;38.15;5.60;;;7.80;99.90;;;;;;4937508;29;20039;-73
2023/01/13 02:47:56;;;;;;;41.17;5.97;;;7.80;99.90;;;;;;4921577;29;20089;-72
2023/01/13 02:50:27;;;;;;;42.50;6.30;;;7.80;99.90;;;;;;4940458;28;21224;-73
2023/01/13 02:52:58;;;;;;;38.60;6.03;;;7.80;99.90;;;;;;4919212;28;20055;-72
2023/01/13 02:55:36;;;;;;;34.25;6.70;;;7.80;99.90;;;;;;4920333;29;20053;-73
2023/01/13 02:58:06;;;;;;;41.80;7.07;;;7.80;99.90;;;;;;4920356;29;20097;-72
2023/01/13 03:00:33;;;;;;;36.67;6.07;;;7.90;99.90;;;;;;4922807;28;20440;-72
2023/01/13 03:03:00;;;;;;;48.60;6.53;;;7.90;99.90;;;;;;4920732;29;20059;-73
2023/01/13 03:05:27;;;;;;;40.22;6.30;;;7.90;99.90;;;;;;4908390;28;20071;-73
2023/01/13 03:08:01;;;;;;;36.30;7.10;;;7.90;99.90;;;;;;4905191;28;21026;-72
2023/01/13 03:10:36;;;;;;;31.45;4.95;;;8.00;99.90;;;;;;4905561;28;20484;-73
2023/01/13 03:13:20;;;;;;;43.03;6.15;;;8.00;99.90;;;;;;4908189;29;20170;-73
2023/01/13 03:15:55;;;;;;;32.58;5.53;;;8.00;99.90;;;;;;4926153;28;20369;-74
2023/01/13 03:18:44;;;;;;;31.58;5.13;;;8.00;99.90;;;;;;4920831;28;20043;-72
2023/01/13 03:21:52;;;;;;;32.25;5.60;;;8.00;99.90;;;;;;4932471;28;20050;-72
2023/01/13 03:24:46;;;;;;;39.03;5.80;;;8.00;99.90;;;;;;4919553;28;20472;-72
2023/01/13 03:27:24;;;;;;;43.95;6.18;;;7.90;99.90;;;;;;4907175;28;20054;-72
2023/01/13 03:30:07;;;;;;;36.75;5.32;;;7.90;99.90;;;;;;4914820;28;20058;-72
2023/01/13 03:32:43;;;;;;;41.85;6.95;;;7.90;99.90;;;;;;4914780;28;20512;-72
2023/01/13 03:35:29;;;;;;;29.67;5.20;;;8.00;99.90;;;;;;4923824;28;20046;-71
2023/01/13 03:38:30;;;;;;;34.28;5.38;;;8.00;99.90;;;;;;4923697;29;20051;-72
2023/01/13 03:41:01;;;;;;;31.97;4.93;;;8.00;99.90;;;;;;4924296;28;20043;-72
2023/01/13 03:46:42;;;;;;;35.03;5.28;;;8.00;99.90;;;;;;4912410;29;20142;-72
2023/01/13 03:49:11;;;;;;;32.05;5.07;;;8.00;99.90;;;;;;4904281;28;20046;-71
2023/01/13 03:51:40;;;;;;;47.97;5.15;;;8.00;99.90;;;;;;4907658;28;20467;-72
2023/01/13 03:54:10;;;;;;;36.55;5.57;;;8.10;99.90;;;;;;4910704;28;20071;-71
2023/01/13 03:56:43;;;;;;;31.38;5.85;;;8.10;99.90;;;;;;4940930;28;20105;-71
2023/01/13 03:59:15;;;;;;;34.88;4.53;;;8.10;99.90;;;;;;4906991;28;20058;-72
2023/01/13 04:01:44;;;;;;;44.42;6.05;;;8.00;99.90;;;;;;4929108;28;20081;-72
2023/01/13 04:04:17;;;;;;;27.85;4.55;;;8.00;99.90;;;;;;4954303;28;20051;-72
2023/01/13 04:07:09;;;;;;;35.25;5.15;;;8.00;99.90;;;;;;4969555;28;20054;-72
2023/01/13 04:09:34;;;;;;;;;;;8.00;99.90;;;;;;4929540;28;20061;-72
2023/01/13 04:12:13;;;;;;;38.67;5.85;;;8.10;99.90;;;;;;4966279;28;19922;-72
2023/01/13 04:14:40;;;;;;;32.40;4.97;;;8.00;99.90;;;;;;4956222;28;20492;-72
2023/01/13 04:17:06;;;;;;;31.60;4.70;;;8.00;99.90;;;;;;4955526;28;20575;-73
2023/01/13 04:19:31;;;;;;;39.28;6.13;;;8.00;99.90;;;;;;4948927;28;20080;-72
2023/01/13 04:21:58;;;;;;;31.58;5.47;;;8.00;99.90;;;;;;4937525;28;20079;-72
2023/01/13 04:24:24;;;;;;;36.50;5.07;;;7.90;99.90;;;;;;4957293;28;20054;-72
2023/01/13 04:26:50;;;;;;;32.05;5.07;;;7.90;99.90;;;;;;4960337;28;20050;-72
2023/01/13 04:29:16;;;;;;;32.45;5.65;;;7.90;99.90;;;;;;4954989;28;20790;-72
2023/01/13 04:31:42;;;;;;;39.83;5.68;;;7.90;99.90;;;;;;4957822;28;20047;-72
2023/01/13 04:34:09;;;;;;;32.00;5.88;;;7.90;99.90;;;;;;4956399;28;20054;-72
2023/01/13 04:36:35;;;;;;;43.05;7.53;;;7.90;99.90;;;;;;4958518;28;20146;-72
2023/01/13 04:39:02;;;;;;;33.13;4.70;;;7.60;99.90;;;;;;4957339;28;20047;-71
2023/01/13 04:41:56;;;;;;;38.28;4.93;;;7.90;99.90;;;;;;4955308;28;20053;-72
2023/01/13 04:44:14;;;;;;;34.53;5.20;;;8.00;99.90;;;;;;4953887;28;20054;-72
2023/01/13 04:46:40;;;;;;;33.20;4.07;;;7.90;99.90;;;;;;4955978;28;20050;-72
2023/01/13 04:49:05;;;;;;;37.40;6.82;;;8.00;99.90;;;;;;4954537;28;20047;-72
2023/01/13 04:51:31;;;;;;;32.95;5.53;;;8.00;99.90;;;;;;4941709;28;20069;-72
2023/01/13 04:53:56;;;;;;;34.90;6.13;;;8.00;99.90;;;;;;4959483;28;20233;-72
2023/01/13 04:56:22;;;;;;;35.40;5.50;;;8.00;99.90;;;;;;4956702;28;20103;-71
2023/01/13 04:58:48;;;;;;;28.45;5.10;;;8.00;99.90;;;;;;4956831;28;20055;-72
2023/01/13 05:01:14;;;;;;;36.42;5.22;;;8.00;99.90;;;;;;4940549;28;20059;-72
2023/01/13 05:03:40;;;;;;;39.40;5.85;;;8.10;99.90;;;;;;4960735;28;20050;-72
2023/01/13 05:06:05;;;;;;;43.30;6.20;;;8.10;99.90;;;;;;4956537;28;20428;-72
2023/01/13 05:08:31;;;;;;;29.67;4.68;;;8.10;99.90;;;;;;4941659;28;20038;-72
2023/01/13 05:10:59;;;;;;;32.88;5.32;;;8.10;99.90;;;;;;4960414;28;20043;-72
2023/01/13 05:18:55;;;;;;;36.90;5.45;;;8.10;99.90;;;;;;4956724;28;20108;-72
2023/01/13 05:26:51;;;;;;;29.95;4.80;;;8.10;99.90;;;;;;4958164;28;20051;-72
2023/01/13 05:29:17;;;;;;;33.35;4.82;;;8.10;99.90;;;;;;4956191;28;20043;-72
2023/01/13 05:31:43;;;;;;;27.48;4.30;;;8.10;99.90;;;;;;4972185;28;20049;-72
2023/01/13 05:34:08;;;;;;;28.20;4.82;;;8.10;99.90;;;;;;4959375;28;20035;-71
2023/01/13 05:36:34;;;;;;;36.70;4.28;;;8.10;99.90;;;;;;4957812;28;20050;-71
2023/01/13 05:39:00;;;;;;;24.85;3.88;;;8.10;99.90;;;;;;4958041;28;20074;-72
2023/01/13 05:44:09;;;;;;;28.73;3.78;;;8.10;99.90;;;;;;4958104;28;20063;-71
2023/01/13 05:46:35;;;;;;;27.27;3.58;;;8.10;99.90;;;;;;4956431;28;20543;-71
2023/01/13 05:49:01;;;;;;;23.30;4.57;;;8.20;99.90;;;;;;4955509;28;20039;-73
2023/01/13 05:51:27;;;;;;;35.42;5.40;;;8.30;99.90;;;;;;4958121;28;20058;-72
2023/01/13 05:53:52;;;;;;;25.05;3.70;;;8.20;99.90;;;;;;4960308;28;20049;-72
2023/01/13 05:56:18;;;;;;;28.85;4.45;;;8.20;99.90;;;;;;4958736;28;20679;-74
2023/01/13 05:58:44;;;;;;;25.17;3.55;;;8.20;99.90;;;;;;4955789;28;20051;-73
2023/01/13 06:01:10;;;;;;;28.73;3.80;;;8.20;99.90;;;;;;4959876;28;20086;-72
2023/01/13 06:03:36;;;;;;;27.23;4.22;;;8.20;99.90;;;;;;4958690;28;20053;-73
2023/01/13 06:06:03;;;;;;;25.92;3.35;;;8.20;99.90;;;;;;4960963;28;20047;-73
2023/01/13 06:08:29;;;;;;;28.25;4.32;;;8.20;99.90;;;;;;4956553;28;20065;-73
2023/01/13 06:10:56;;;;;;;28.77;3.80;;;8.30;99.90;;;;;;4959289;28;20055;-73
2023/01/13 06:13:24;;;;;;;31.38;4.93;;;8.20;99.90;;;;;;4964312;28;20088;-73
2023/01/13 06:15:50;;;;;;;25.73;4.25;;;8.30;99.90;;;;;;4962844;28;20149;-73
2023/01/13 06:18:16;;;;;;;29.67;5.10;;;8.10;99.90;;;;;;4960313;28;20129;-74
2023/01/13 06:20:41;;;;;;;29.55;4.63;;;8.10;99.90;;;;;;4943762;28;20193;-73
2023/01/13 06:23:09;;;;;;;27.48;3.65;;;8.10;99.90;;;;;;4961129;28;20636;-73
2023/01/13 06:25:48;;;;;;;24.85;3.80;;;8.10;99.90;;;;;;4959241;28;20047;-72
2023/01/13 06:28:13;;;;;;;28.23;5.07;;;8.20;99.90;;;;;;4944517;28;20136;-73
2023/01/13 06:30:49;;;;;;;25.10;4.15;;;8.20;99.90;;;;;;4954802;28;20058;-73
2023/01/13 06:33:22;;;;;;;25.50;4.47;;;8.20;99.90;;;;;;4964746;28;20492;-73
2023/01/13 06:35:55;;;;;;;30.38;4.25;;;8.20;99.90;;;;;;4956964;28;20043;-73
2023/01/13 06:38:25;;;;;;;22.77;3.83;;;8.20;99.90;;;;;;4944441;28;20086;-74
2023/01/13 06:40:50;;;;;;;22.48;3.88;;;8.20;99.90;;;;;;4959476;28;20057;-73
2023/01/13 06:43:16;;;;;;;26.08;3.75;;;8.20;99.90;;;;;;4959487;28;20051;-73
2023/01/13 06:45:51;;;;;;;27.08;3.97;;;8.20;99.90;;;;;;4963129;28;20050;-73
2023/01/13 06:48:22;;;;;;;25.55;5.07;;;8.50;99.90;;;;;;4954586;28;20109;-73
2023/01/13 06:50:48;;;;;;;24.88;4.40;;;8.00;99.90;;;;;;4960686;28;20049;-74
2023/01/13 06:53:14;;;;;;;25.85;3.90;;;8.00;99.90;;;;;;4961497;28;20047;-74
2023/01/13 06:55:40;;;;;;;27.05;3.75;;;8.00;99.90;;;;;;4957179;28;20285;-73
2023/01/13 06:58:06;;;;;;;27.80;3.72;;;8.00;99.90;;;;;;4956459;28;20133;-73
2023/01/13 07:00:35;;;;;;;24.33;3.80;;;7.90;99.90;;;;;;4955575;28;20601;-73
2023/01/13 07:03:20;;;;;;;22.15;3.30;;;7.90;99.90;;;;;;4939639;28;20053;-73
2023/01/13 07:05:53;;;;;;;20.83;3.03;;;7.90;99.90;;;;;;4975058;28;20069;-73
2023/01/13 07:08:20;;;;;;;27.08;3.88;;;7.80;99.90;;;;;;4969564;28;20034;-73
2023/01/13 07:10:46;;;;;;;23.20;3.70;;;7.80;99.90;;;;;;4973265;28;20055;-74
2023/01/13 07:16:01;;;;;;;30.25;4.32;;;7.70;99.90;;;;;;4956927;28;20046;-73
2023/01/13 07:18:30;;;;;;;26.58;4.18;;;7.60;99.90;;;;;;4957993;28;20156;-73
2023/01/13 07:21:05;;;;;;;23.58;4.60;;;7.60;99.90;;;;;;4955090;28;20138;-72
2023/01/13 07:23:36;;;;;;;33.65;4.15;;;7.60;99.90;;;;;;4956590;28;20058;-73
2023/01/13 07:26:02;;;;;;;24.50;4.28;;;7.50;99.90;;;;;;4959776;28;22243;-72
2023/01/13 07:28:29;;;;;;;33.83;4.22;;;7.50;99.90;;;;;;4955808;28;20045;-72
2023/01/13 07:30:55;;;;;;;24.77;3.60;;;7.50;99.90;;;;;;4954406;28;20141;-72
2023/01/13 07:33:21;;;;;;;24.50;3.97;;;7.50;99.90;;;;;;4957330;28;20050;-72
2023/01/13 07:35:55;;;;;;;29.73;4.10;;;7.40;99.90;;;;;;4941317;28;20428;-72
2023/01/13 07:38:21;;;;;;;31.15;5.03;;;7.50;99.90;;;;;;4955528;28;20045;-73
2023/01/13 07:40:47;;;;;;;28.35;3.55;;;7.40;99.90;;;;;;4970501;28;20046;-72
2023/01/13 07:43:30;;;;;;;25.20;3.55;;;7.40;99.90;;;;;;4955629;28;20061;-73
2023/01/13 07:46:04;;;;;;;23.83;4.10;;;7.30;99.90;;;;;;4937603;28;20085;-72
2023/01/13 07:48:32;;;;;;;22.40;4.38;;;7.30;99.90;;;;;;4956646;28;20047;-72
2023/01/13 07:51:02;;;;;;;26.63;3.95;;;7.30;99.90;;;;;;4966912;28;20051;-72
2023/01/13 07:53:28;;;;;;;23.40;3.60;;;7.30;99.90;;;;;;4958946;28;20068;-72
2023/01/13 07:55:55;;;;;;;31.42;5.20;;;7.30;99.90;;;;;;4941421;28;20494;-72
2023/01/13 07:58:21;;;;;;;30.67;4.25;;;7.30;99.90;;;;;;4940869;28;20383;-72
2023/01/13 08:00:47;;;;;;;25.92;4.68;;;7.30;99.90;;;;;;4973130;28;20058;-72
2023/01/13 08:03:12;;;;;;;32.67;4.72;;;7.30;99.90;;;;;;4942001;28;20046;-72
2023/01/13 08:05:38;;;;;;;33.03;4.07;;;7.30;99.90;;;;;;4953166;28;20051;-71
2023/01/13 08:08:04;;;;;;;29.27;3.88;;;7.40;99.90;;;;;;4952207;28;20039;-72
2023/01/13 08:10:30;;;;;;;27.80;5.00;;;7.30;99.90;;;;;;4971931;28;20039;-72
2023/01/13 08:15:40;;;;;;;32.67;4.25;;;7.40;99.90;;;;;;4958274;28;20059;-72
2023/01/13 08:18:06;;;;;;;30.50;4.35;;;7.40;99.90;;;;;;4957879;28;20403;-72
2023/01/13 08:20:32;;;;;;;24.00;4.15;;;7.40;99.90;;;;;;4957172;28;20043;-72
2023/01/13 08:22:59;;;;;;;23.95;3.85;;;7.40;99.90;;;;;;4951926;28;20109;-71
2023/01/13 08:25:26;;;;;;;28.40;3.70;;;7.40;99.90;;;;;;4956007;28;20090;-72
2023/01/13 08:27:52;;;;;;;35.22;7.38;;;7.50;99.90;;;;;;4955582;28;20045;-72
2023/01/13 08:30:18;;;;;;;35.05;4.45;;;7.60;99.90;;;;;;4957636;28;20051;-72
2023/01/13 08:32:47;;;;;;;31.50;4.53;;;7.50;99.90;;;;;;4957995;28;20042;-73
2023/01/13 08:35:13;;;;;;;29.70;4.65;;;7.60;99.90;;;;;;4958831;28;20058;-73
2023/01/13 08:37:39;;;;;;;33.65;5.60;;;7.60;99.90;;;;;;4961253;28;20297;-73
2023/01/13 08:40:06;;;;;;;34.75;4.32;;;7.60;99.90;;;;;;4955052;28;20310;-73
2023/01/13 08:42:31;;;;;;;26.95;4.43;;;7.60;99.90;;;;;;4956290;28;20181;-73
2023/01/13 08:44:57;;;;;;;45.22;5.18;;;7.60;99.90;;;;;;4956551;28;20047;-72
2023/01/13 08:47:23;;;;;;;32.42;4.53;;;7.60;99.90;;;;;;4955216;28;20038;-72
2023/01/13 08:49:49;;;;;;;28.63;4.35;;;7.70;99.90;;;;;;4959791;28;20049;-73
2023/01/13 08:52:15;;;;;;;32.53;4.68;;;7.70;99.90;;;;;;4955750;28;20047;-73
2023/01/13 08:54:41;;;;;;;37.78;4.90;;;7.70;99.90;;;;;;4970075;28;20061;-73
2023/01/13 08:57:06;;;;;;;33.67;4.43;;;7.70;99.90;;;;;;4953519;28;20101;-72
2023/01/13 08:59:33;;;;;;;27.88;5.30;;;8.20;99.90;;;;;;4958520;28;20042;-73
2023/01/13 09:01:58;;;;;;;30.80;4.32;;;7.80;99.90;;;;;;4958123;28;20051;-73
2023/01/13 09:04:27;;;;;;;30.13;4.40;;;7.90;99.90;;;;;;4941928;28;20043;-72
2023/01/13 09:06:54;;;;;;;30.75;4.70;;;7.70;99.90;;;;;;4973585;28;20066;-72
2023/01/13 09:09:21;;;;;;;32.47;4.13;;;7.70;99.90;;;;;;4943114;28;21021;-72
2023/01/13 09:14:36;;;;;;;19.33;3.20;;;7.70;99.90;;;;;;4959456;28;20448;-72
2023/01/13 09:17:03;;;;;;;25.30;3.78;;;7.60;99.90;;;;;;4958478;28;20039;-73
2023/01/13 09:19:29;;;;;;;22.70;3.65;;;7.60;99.90;;;;;;4963027;28;20043;-73
2023/01/13 09:21:56;;;;;;;28.95;3.70;;;7.50;99.90;;;;;;4943241;28;20145;-73
2023/01/13 09:24:22;;;;;;;23.33;3.45;;;7.50;99.90;;;;;;4960779;28;20039;-72
2023/01/13 09:26:48;;;;;;;27.40;3.97;;;7.50;99.90;;;;;;4957562;28;20508;-73
2023/01/13 09:29:14;;;;;;;25.65;3.78;;;7.40;99.90;;;;;;4944042;28;20039;-73
2023/01/13 09:31:41;;;;;;;30.58;5.32;;;7.40;99.90;;;;;;4959555;28;20494;-73
2023/01/13 09:36:55;;;;;;;24.33;3.33;;;7.40;99.90;;;;;;4970373;28;20164;-73
2023/01/13 09:39:21;;;;;;;30.13;4.45;;;7.40;99.90;;;;;;4942267;28;20419;-73
2023/01/13 09:44:46;;;;;;;29.02;4.75;;;7.40;99.90;;;;;;4958964;28;20678;-74
2023/01/13 09:47:34;;;;;;;29.20;3.70;;;7.40;99.90;;;;;;4959665;28;20057;-73
2023/01/13 09:50:32;;;;;;;32.00;4.30;;;7.40;99.90;;;;;;4973314;28;20376;-72
2023/01/13 09:52:59;;;;;;;31.63;3.85;;;7.40;99.90;;;;;;4954720;28;20043;-72
2023/01/13 09:55:35;;;;;;;29.05;3.88;;;7.40;99.90;;;;;;4941225;28;20408;-72
2023/01/13 09:58:10;;;;;;;28.58;4.10;;;7.30;99.90;;;;;;4943191;28;20081;-72
2023/01/13 10:00:43;;;;;;;31.88;4.97;;;7.30;99.90;;;;;;4954979;28;20066;-73
2023/01/13 10:03:12;;;;;;;25.55;4.22;;;7.30;99.90;;;;;;4908729;29;20050;-72
2023/01/13 10:05:49;;;;;;;26.33;4.13;;;7.30;99.90;;;;;;4938405;28;20051;-72
2023/01/13 10:08:28;;;;;;;28.35;4.50;;;7.30;99.90;;;;;;4941680;28;20047;-72
2023/01/13 10:13:13;;;;;;;24.75;4.03;;;7.20;99.90;;;;;;4926426;29;20047;-72
2023/01/13 10:13:54;;;;;;;18.52;3.38;;;7.20;99.90;;;;;;4921965;29;20063;-73
2023/01/13 10:16:43;;;;;;;27.38;4.43;;;7.30;99.90;;;;;;4940765;28;20453;-72
2023/01/13 10:19:18;;;;;;;31.40;4.10;;;7.30;99.90;;;;;;4942069;28;20126;-72
2023/01/13 10:22:08;;;;;;;24.63;4.28;;;7.30;99.90;;;;;;4922399;28;20087;-71
2023/01/13 10:25:05;;;;;;;24.63;3.63;;;7.30;99.90;;;;;;4927135;29;20089;-71
2023/01/13 10:27:34;;;;;;;25.42;3.50;;;7.30;99.90;;;;;;4925360;29;20051;-72
2023/01/13 10:30:33;;;;;;;34.70;3.80;;;7.40;99.90;;;;;;4927000;28;20057;-72
2023/01/13 10:33:05;;;;;;;30.17;4.32;;;7.40;99.90;;;;;;4941200;28;20059;-72
2023/01/13 10:35:49;;;;;;;;;;;7.40;99.90;;;;;;4940352;28;20035;-69
2023/01/13 10:38:17;;;;;;;32.92;4.45;;;7.40;99.90;;;;;;4939398;29;19973;-72
2023/01/13 10:40:48;;;;;;;25.98;4.28;;;7.40;99.90;;;;;;4925118;29;20101;-72
2023/01/13 10:43:14;;;;;;;25.30;3.60;;;7.40;99.90;;;;;;4922619;28;20065;-72
2023/01/13 10:45:40;;;;;;;24.00;3.67;;;7.50;99.90;;;;;;4941108;28;20043;-72
2023/01/13 10:48:13;;;;;;;27.73;4.50;;;7.50;99.90;;;;;;4924131;29;20043;-72
2023/01/13 10:50:40;;;;;;;31.08;4.15;;;7.50;99.90;;;;;;4926138;28;20071;-71
2023/01/13 10:53:43;;;;;;;28.23;3.97;;;8.10;99.90;;;;;;4900979;29;20130;-72
2023/01/13 10:56:18;;;;;;;30.65;3.65;;;7.50;99.90;;;;;;4927305;28;20054;-72
2023/01/13 10:58:44;;;;;;;27.33;3.95;;;7.60;99.90;;;;;;4937531;28;20245;-71
2023/01/13 11:01:19;;;;;;;24.40;4.07;;;7.50;99.90;;;;;;4942878;28;21105;-72
2023/01/13 11:03:46;;;;;;;26.70;4.35;;;7.60;99.90;;;;;;4956981;28;20046;-73
2023/01/13 11:06:26;;;;;;;29.40;4.07;;;7.60;99.90;;;;;;4934879;28;20054;-72
2023/01/13 11:08:56;;;;;;;21.50;3.33;;;7.90;99.90;;;;;;4968057;28;20045;-73
2023/01/13 11:11:42;;;;;;;25.35;3.90;;;7.60;99.90;;;;;;4937898;28;20122;-74
2023/01/13 11:14:32;;;;;;;26.98;3.53;;;7.60;99.90;;;;;;4958243;28;20612;-73
2023/01/13 11:17:01;;;;;;;22.65;3.28;;;7.60;99.90;;;;;;4950447;28;20070;-73
2023/01/13 11:19:29;;;;;;;27.13;3.80;;;7.60;99.90;;;;;;4953340;28;20042;-72
2023/01/13 11:22:19;;;;;;;20.48;3.22;;;7.60;99.90;;;;;;4958498;28;20047;-73
2023/01/13 11:24:50;;;;;;;26.23;3.13;;;7.70;99.90;;;;;;4952330;28;20050;-73
2023/01/13 11:27:21;;;;;;;22.80;3.75;;;7.70;99.90;;;;;;4966507;28;20043;-73
2023/01/13 11:30:15;;;;;;;19.85;3.45;;;7.70;99.90;;;;;;4952342;28;20993;-72
2023/01/13 11:33:05;;;;;;;27.98;4.50;;;7.70;99.90;;;;;;4958107;28;20523;-72
2023/01/13 11:35:34;;;;;;;24.00;3.70;;;7.80;99.90;;;;;;4952988;28;20055;-72
2023/01/13 11:38:11;;;;;;;24.13;3.78;;;7.80;99.90;;;;;;4949431;28;20134;-72
2023/01/13 11:40:47;;;;;;;24.77;3.55;;;7.80;99.90;;;;;;4934090;28;20140;-72
2023/01/13 11:43:25;;;;;;;19.27;2.80;;;7.90;99.90;;;;;;4938172;28;20113;-72
2023/01/13 11:45:55;;;;;;;23.23;3.17;;;8.30;99.90;;;;;;4953906;28;20052;-72
2023/01/13 11:48:25;;;;;;;24.77;3.17;;;7.90;99.90;;;;;;4970806;28;20377;-72
2023/01/13 11:51:10;;;;;;;19.40;2.40;;;8.00;99.90;;;;;;4956399;28;20055;-72
2023/01/13 11:53:51;;;;;;;20.33;2.70;;;8.50;99.90;;;;;;4952534;28;20130;-72
2023/01/13 11:56:26;;;;;;;25.80;3.10;;;8.10;99.90;;;;;;4966846;28;20609;-72
2023/01/13 11:58:58;;;;;;;23.88;3.20;;;8.10;99.90;;;;;;4954242;28;20083;-72
2023/01/13 12:01:59;;;;;;;15.68;2.70;;;8.10;99.90;;;;;;4946272;28;20059;-72
2023/01/13 12:04:37;;;;;;;19.40;2.70;;;8.10;99.90;;;;;;4911211;29;20056;-73
2023/01/13 12:07:16;;;;;;;20.75;2.88;;;8.00;99.90;;;;;;4898225;29;20044;-73
2023/01/13 12:10:01;;;;;;;23.35;3.10;;;8.10;99.90;;;;;;4925838;28;20056;-72
2023/01/13 12:12:32;;;;;;;16.67;2.30;;;8.20;99.90;;;;;;4914624;28;20061;-72
2023/01/13 12:15:06;;;;;;;21.55;3.45;;;8.10;99.90;;;;;;4914294;28;20572;-71
2023/01/13 12:17:38;;;;;;;23.85;2.90;;;8.10;99.90;;;;;;4914294;28;20055;-72
2023/01/13 12:20:26;;;;;;;;;;;8.10;99.90;;;;;;4914157;29;20066;-73
2023/01/13 12:22:55;;;;;;;28.85;2.72;;;8.20;99.90;;;;;;4930363;28;20359;-73
2023/01/13 12:25:38;;;;;;;27.02;2.50;;;8.20;99.90;;;;;;4930782;28;20155;-72
2023/01/13 12:28:14;;;;;;;19.70;3.25;;;8.30;99.90;;;;;;4914687;29;20110;-72
2023/01/13 12:30:49;;;;;;;20.90;2.67;;;8.30;99.90;;;;;;4915263;29;20032;-72
2023/01/13 12:33:38;;;;;;;15.13;2.42;;;8.30;99.90;;;;;;4929838;28;20154;-72
2023/01/13 12:36:41;;;;;;;19.75;2.60;;;8.30;99.90;;;;;;4897634;29;20059;-71
2023/01/13 12:39:25;;;;;;;18.83;2.60;;;8.40;99.90;;;;;;4913025;29;20386;-72
2023/01/13 12:45:07;;;;;;;20.30;3.13;;;8.40;99.90;;;;;;4930845;29;20121;-72
2023/01/13 12:47:37;;;;;;;18.57;2.70;;;8.40;99.90;;;;;;4929829;29;20501;-72
2023/01/13 12:50:24;;;;;;;25.75;3.17;;;8.40;99.90;;;;;;4916990;29;20051;-72
2023/01/13 12:52:52;;;;;;;25.73;3.25;;;9.00;99.90;;;;;;4913681;29;20453;-71
2023/01/13 12:55:24;;;;;;;17.88;2.60;;;8.50;99.90;;;;;;4915596;29;20122;-72
2023/01/13 12:58:03;;;;;;;18.00;2.67;;;8.50;99.90;;;;;;4912746;29;20047;-73
2023/01/13 13:00:38;;;;;;;15.15;2.75;;;8.50;99.90;;;;;;4904270;28;20086;-73
2023/01/13 13:03:08;;;;;;;17.65;2.50;;;8.50;99.90;;;;;;4947786;28;20054;-73
2023/01/13 13:05:59;;;;;;;17.77;2.65;;;8.60;99.90;;;;;;4949065;28;20051;-72
2023/01/13 13:09:12;;;;;;;19.33;2.70;;;8.60;99.90;;;;;;4933464;28;20113;-72
2023/01/13 13:14:41;;;;;;;16.25;2.55;;;8.60;99.90;;;;;;4948057;28;20075;-72
2023/01/13 13:17:28;;;;;;;19.52;2.50;;;8.60;99.90;;;;;;4961368;28;20042;-73
2023/01/13 13:19:58;;;;;;;19.88;2.78;;;8.60;99.90;;;;;;4930338;28;20083;-73
2023/01/13 13:22:27;;;;;;;15.23;2.43;;;8.60;99.90;;;;;;4950740;28;20126;-73
2023/01/13 13:24:56;;;;;;;13.77;2.03;;;8.60;99.90;;;;;;4953148;28;20050;-71
2023/01/13 13:27:39;;;;;;;16.73;3.08;;;8.60;99.90;;;;;;4949899;28;20158;-71
2023/01/13 13:30:25;;;;;;;16.27;2.40;;;8.60;99.90;;;;;;4959461;28;20043;-71
2023/01/13 13:33:23;;;;;;;17.17;2.50;;;8.60;99.90;;;;;;4951794;28;20057;-72
2023/01/13 13:36:01;;;;;;;16.55;2.47;;;8.50;99.90;;;;;;4954347;28;20566;-73
2023/01/13 13:47:04;;;;;;;13.90;2.40;;;8.50;99.90;;;;;;4955674;28;20058;-73
2023/01/13 13:49:44;;;;;;;15.43;2.60;;;8.50;99.90;;;;;;4956710;28;20046;-74
2023/01/13 13:52:29;;;;;;;18.95;2.33;;;8.50;99.90;;;;;;4951750;28;20051;-73
2023/01/13 13:55:04;;;;;;;15.20;2.50;;;8.50;99.90;;;;;;4953618;28;20140;-73
2023/01/13 13:57:41;;;;;;;19.60;3.17;;;8.50;99.90;;;;;;4941213;28;20085;-73
2023/01/13 14:00:29;;;;;;;16.83;2.97;;;8.50;99.90;;;;;;4952619;28;20471;-73
2023/01/13 14:03:00;;;;;;;15.65;2.08;;;8.50;99.90;;;;;;4939706;29;20059;-73
2023/01/13 14:05:34;;;;;;;13.57;2.38;;;8.90;99.90;;;;;;4937973;28;20043;-73
2023/01/13 14:08:17;;;;;;;16.55;2.95;;;8.50;99.90;;;;;;4938817;29;20130;-72
2023/01/13 14:10:44;;;;;;;22.13;2.95;;;8.50;99.90;;;;;;4938904;29;20130;-72